Terminal Aerodrome Forecast
Issued by NWS

Home | Current Version | Previous Version | Text Only | Print | Product List | Glossary On
Versions: 1 2 3 4 5 6 7 8 9 10 11 12
000
FTUS46 KLOX 252340
TAFBUR
TAF
KBUR 252340Z 2600/2624 17009KT P6SM SKC
     FM260400 14006KT P6SM SKC
     FM260900 12005KT P6SM OVC010
     FM261700 14006KT P6SM SKC
     FM262000 16010KT P6SM SKC=

USA.gov is the U.S. government's official web portal to all federal, state and local government web resources and services.